createdAt,value
2018-05-11T00:01:43.464Z,55.09
2018-05-11T00:04:14.506Z,54.99
2018-05-11T00:06:45.494Z,55.20
2018-05-11T00:09:16.511Z,54.94
2018-05-11T00:11:47.490Z,54.99
2018-05-11T00:14:18.536Z,55.08
2018-05-11T00:16:49.525Z,54.90
2018-05-11T00:19:20.509Z,54.77
2018-05-11T00:21:51.515Z,54.49
2018-05-11T00:24:22.510Z,54.41
2018-05-11T00:26:53.493Z,54.62
2018-05-11T00:29:24.494Z,54.99
2018-05-11T00:31:55.457Z,55.57
2018-05-11T00:34:26.483Z,56.42
2018-05-11T00:36:57.471Z,56.91
2018-05-11T00:39:28.455Z,57.28
2018-05-11T00:41:59.421Z,57.16
2018-05-11T00:44:30.413Z,57.13
2018-05-11T00:47:01.383Z,57.25
2018-05-11T00:49:32.370Z,57.48
2018-05-11T00:52:03.369Z,57.29
2018-05-11T00:54:34.397Z,56.99
2018-05-11T00:57:05.375Z,56.93
2018-05-11T00:59:36.366Z,56.72
2018-05-11T01:02:07.390Z,57.12
2018-05-11T01:04:38.350Z,57.44
2018-05-11T01:07:09.373Z,57.45
2018-05-11T01:09:40.360Z,57.23
2018-05-11T01:12:11.338Z,57.27
2018-05-11T01:14:42.333Z,57.12
2018-05-11T01:17:13.366Z,57.55
2018-05-11T01:19:44.404Z,57.73
2018-05-11T01:22:15.412Z,57.98
2018-05-11T01:24:46.364Z,57.74
2018-05-11T01:27:17.382Z,57.69
2018-05-11T01:29:48.431Z,57.51
2018-05-11T01:32:19.406Z,57.64
2018-05-11T01:34:50.445Z,57.61
2018-05-11T01:37:21.438Z,57.89
2018-05-11T01:39:52.488Z,57.91
2018-05-11T01:42:23.379Z,57.79
2018-05-11T01:44:54.355Z,57.55
2018-05-11T01:47:25.329Z,57.81
2018-05-11T01:49:56.317Z,57.78
2018-05-11T01:52:27.290Z,58.08
2018-05-11T01:54:58.291Z,58.44
2018-05-11T01:57:29.290Z,58.83
2018-05-11T02:00:00.317Z,58.83
2018-05-11T02:02:31.320Z,58.63
2018-05-11T02:05:02.335Z,58.81
2018-05-11T02:07:33.310Z,59.06
2018-05-11T02:10:04.381Z,59.14
2018-05-11T02:12:35.384Z,59.28
2018-05-11T02:15:06.462Z,59.56
2018-05-11T02:17:37.498Z,59.95
2018-05-11T02:20:08.523Z,59.79
2018-05-11T02:22:39.503Z,59.65
2018-05-11T02:25:10.471Z,59.67
2018-05-11T02:27:41.530Z,59.92
2018-05-11T02:30:12.509Z,59.77
2018-05-11T02:32:43.519Z,59.72
2018-05-11T02:35:14.518Z,59.49
2018-05-11T02:37:45.552Z,59.53
2018-05-11T02:40:16.536Z,59.94
2018-05-11T02:42:47.540Z,59.68
2018-05-11T02:45:18.557Z,59.72
2018-05-11T02:47:49.552Z,59.71
2018-05-11T02:50:20.607Z,59.67
2018-05-11T02:52:51.608Z,59.37
2018-05-11T02:55:22.584Z,59.13
2018-05-11T02:57:53.560Z,59.01
2018-05-11T03:00:24.545Z,58.80
2018-05-11T03:02:55.503Z,58.66
2018-05-11T03:05:26.465Z,58.91
2018-05-11T03:07:57.433Z,59.04
2018-05-11T03:10:28.538Z,59.25
2018-05-11T03:12:59.480Z,59.14
2018-05-11T03:15:30.495Z,59.01
2018-05-11T03:18:01.544Z,58.84
2018-05-11T03:20:32.571Z,58.95
2018-05-11T03:23:03.617Z,58.78
2018-05-11T03:25:34.598Z,58.81
2018-05-11T03:28:05.651Z,58.63
2018-05-11T03:30:36.643Z,58.39
2018-05-11T03:33:08.473Z,58.41
2018-05-11T03:35:39.446Z,58.30
2018-05-11T03:38:10.450Z,58.43
2018-05-11T03:40:41.428Z,58.50
2018-05-11T03:43:12.389Z,58.62
2018-05-11T03:45:43.388Z,58.46
2018-05-11T03:48:14.380Z,58.34
2018-05-11T03:50:45.400Z,58.09
2018-05-11T03:53:16.394Z,57.91
2018-05-11T03:55:47.354Z,57.80
2018-05-11T03:58:18.332Z,57.69
2018-05-11T04:00:49.336Z,57.51
2018-05-11T04:03:32.737Z,57.43
2018-05-11T04:06:03.755Z,57.54
2018-05-11T04:08:43.411Z,57.60
2018-05-11T04:11:14.376Z,57.59
2018-05-11T04:13:45.399Z,57.54
2018-05-11T04:16:16.388Z,57.32
2018-05-11T04:18:47.356Z,57.06
2018-05-11T04:21:18.385Z,57.01
2018-05-11T04:23:49.420Z,57.08
2018-05-11T04:26:20.419Z,56.98
2018-05-11T04:28:51.396Z,56.92
2018-05-11T04:31:22.410Z,56.72
2018-05-11T04:33:53.391Z,56.49
2018-05-11T04:36:24.391Z,56.25
2018-05-11T04:38:55.406Z,56.31
2018-05-11T04:41:26.393Z,56.17
2018-05-11T04:43:57.435Z,56.24
2018-05-11T04:46:28.398Z,55.90
2018-05-11T04:48:59.418Z,55.46
2018-05-11T04:51:30.404Z,55.32
2018-05-11T04:54:01.433Z,55.03
2018-05-11T04:56:32.402Z,54.70
2018-05-11T04:59:03.389Z,54.41
2018-05-11T05:01:34.385Z,54.18
2018-05-11T05:04:05.385Z,53.96
2018-05-11T05:06:36.377Z,53.23
2018-05-11T05:09:07.356Z,52.64
2018-05-11T05:11:38.392Z,52.29
2018-05-11T05:14:09.365Z,52.14
2018-05-11T05:16:40.387Z,52.33
2018-05-11T05:19:11.468Z,52.19
2018-05-11T05:21:42.388Z,52.03
2018-05-11T05:24:13.359Z,51.95
2018-05-11T05:26:44.373Z,51.20
2018-05-11T05:29:15.353Z,50.25
2018-05-11T05:31:46.345Z,49.61
2018-05-11T05:34:17.326Z,48.74
2018-05-11T05:36:48.330Z,47.96
2018-05-11T05:39:19.321Z,47.54
2018-05-11T05:41:50.296Z,47.32
2018-05-11T05:44:21.289Z,47.29
2018-05-11T05:46:52.280Z,47.36
2018-05-11T05:49:23.264Z,47.52
2018-05-11T05:51:54.295Z,47.33
2018-05-11T05:54:25.266Z,47.57
2018-05-11T05:56:56.276Z,47.62
2018-05-11T05:59:27.283Z,47.86
2018-05-11T06:01:58.283Z,47.45
2018-05-11T06:04:29.223Z,47.36
2018-05-11T06:07:00.282Z,47.34
2018-05-11T06:09:31.303Z,46.79
2018-05-11T06:12:02.342Z,46.09
2018-05-11T06:14:33.341Z,45.73
2018-05-11T06:17:05.138Z,45.23
2018-05-11T06:19:38.666Z,45.24
2018-05-11T06:22:09.888Z,45.05
2018-05-11T06:24:41.055Z,44.92
2018-05-11T06:27:14.324Z,45.09
2018-05-11T06:29:45.429Z,44.79
2018-05-11T06:32:17.369Z,44.61
2018-05-11T06:34:48.527Z,44.55
2018-05-11T06:37:19.651Z,44.04
2018-05-11T06:39:50.840Z,43.81
2018-05-11T06:42:23.004Z,43.36
2018-05-11T06:44:54.004Z,42.04
2018-05-11T06:47:25.004Z,41.20
2018-05-11T06:49:56.044Z,40.28
2018-05-11T06:52:27.016Z,39.46
2018-05-11T06:54:57.997Z,39.64
2018-05-11T06:57:28.978Z,40.26
2018-05-11T06:59:59.994Z,40.77
2018-05-11T07:02:30.968Z,40.60
2018-05-11T07:05:01.980Z,40.01
2018-05-11T07:07:32.965Z,39.61
2018-05-11T07:10:04.014Z,38.89
2018-05-11T07:12:35.028Z,38.03
2018-05-11T07:15:06.042Z,37.23
2018-05-11T07:17:37.032Z,37.39
2018-05-11T07:20:08.078Z,37.24
2018-05-11T07:22:39.069Z,37.02
2018-05-11T07:25:10.106Z,36.84
2018-05-11T07:27:41.108Z,36.88
2018-05-11T07:30:12.120Z,36.65
2018-05-11T07:32:43.138Z,36.73
2018-05-11T07:35:14.173Z,36.89
2018-05-11T07:37:45.164Z,37.00
2018-05-11T07:40:16.244Z,37.19
2018-05-11T07:42:47.189Z,37.32
2018-05-11T07:45:18.198Z,37.17
2018-05-11T07:47:49.210Z,36.90
2018-05-11T07:50:20.212Z,36.60
2018-05-11T07:52:51.177Z,36.73
2018-05-11T07:55:22.179Z,36.71
2018-05-11T07:57:53.166Z,37.06
2018-05-11T08:00:24.160Z,37.28
2018-05-11T08:02:55.196Z,38.06
2018-05-11T08:05:26.223Z,38.48
2018-05-11T08:07:57.227Z,37.88
2018-05-11T08:10:28.476Z,37.19
2018-05-11T08:13:00.457Z,36.90
2018-05-11T08:15:31.564Z,36.83
2018-05-11T08:18:02.561Z,36.60
2018-05-11T08:20:33.582Z,36.67
2018-05-11T08:23:04.613Z,36.99
2018-05-11T08:25:35.626Z,36.79
2018-05-11T08:28:06.613Z,36.05
2018-05-11T08:30:37.768Z,35.79
2018-05-11T08:33:08.779Z,35.22
2018-05-11T08:35:39.755Z,34.77
2018-05-11T08:38:10.715Z,33.92
2018-05-11T08:40:41.776Z,33.24
2018-05-11T08:43:12.771Z,33.16
2018-05-11T08:45:43.776Z,33.31
2018-05-11T08:48:14.734Z,33.92
2018-05-11T08:50:45.760Z,35.21
2018-05-11T08:53:16.771Z,35.65
2018-05-11T08:55:47.862Z,35.62
2018-05-11T08:58:18.904Z,35.79
2018-05-11T09:00:49.913Z,36.00
2018-05-11T09:03:20.924Z,37.24
2018-05-11T09:05:51.949Z,37.95
2018-05-11T09:08:22.951Z,38.20
2018-05-11T09:10:53.916Z,37.86
2018-05-11T09:13:31.917Z,37.53
2018-05-11T09:16:02.945Z,37.40
2018-05-11T09:18:33.941Z,36.94
2018-05-11T09:21:04.946Z,36.30
2018-05-11T09:23:35.945Z,35.81
2018-05-11T09:26:06.999Z,35.78
2018-05-11T09:28:38.036Z,36.10
2018-05-11T09:31:09.051Z,36.25
2018-05-11T09:33:40.033Z,36.66
2018-05-11T09:36:11.033Z,37.00
2018-05-11T09:38:42.044Z,37.20
2018-05-11T09:41:13.026Z,37.23
2018-05-11T09:43:44.065Z,36.84
2018-05-11T09:46:15.102Z,36.50
2018-05-11T09:48:46.132Z,36.38
2018-05-11T09:51:17.176Z,36.41
2018-05-11T09:53:48.130Z,36.66
2018-05-11T09:56:19.279Z,37.39
2018-05-11T09:58:50.270Z,37.89
2018-05-11T10:01:21.270Z,38.52
2018-05-11T10:03:52.258Z,38.32
2018-05-11T10:06:23.225Z,38.11
2018-05-11T10:08:54.248Z,38.32
2018-05-11T10:11:25.274Z,38.15
2018-05-11T10:13:56.331Z,37.31
2018-05-11T10:16:27.308Z,36.85
2018-05-11T10:18:58.273Z,36.83
2018-05-11T10:21:29.258Z,36.69
2018-05-11T10:24:00.235Z,36.06
2018-05-11T10:26:31.253Z,35.23
2018-05-11T10:29:02.334Z,34.21
2018-05-11T10:31:33.304Z,33.92
2018-05-11T10:34:04.280Z,33.54
2018-05-11T10:36:35.245Z,33.64
2018-05-11T10:39:06.228Z,33.27
2018-05-11T10:41:37.192Z,33.03
2018-05-11T10:44:08.220Z,32.59
2018-05-11T10:46:39.225Z,32.98
2018-05-11T10:49:10.223Z,33.98
2018-05-11T10:51:41.300Z,34.54
2018-05-11T10:54:12.278Z,33.74
2018-05-11T10:56:43.331Z,33.16
2018-05-11T10:59:14.353Z,32.49
2018-05-11T11:01:45.320Z,33.14
2018-05-11T11:04:16.274Z,33.12
2018-05-11T11:06:47.231Z,33.37
2018-05-11T11:09:18.229Z,34.27
2018-05-11T11:11:49.217Z,34.35
2018-05-11T11:14:20.202Z,33.11
2018-05-11T11:16:58.354Z,31.55
2018-05-11T11:19:29.334Z,30.48
2018-05-11T11:22:00.368Z,29.91
2018-05-11T11:24:31.350Z,29.35
2018-05-11T11:27:02.346Z,29.36
2018-05-11T11:29:33.281Z,29.53
2018-05-11T11:32:04.344Z,29.01
2018-05-11T11:34:42.399Z,29.13
2018-05-11T11:37:13.433Z,28.37
2018-05-11T11:39:44.442Z,27.42
2018-05-11T11:42:15.499Z,27.81
2018-05-11T11:44:46.492Z,28.04
2018-05-11T11:47:17.489Z,28.67
2018-05-11T11:49:48.475Z,28.91
2018-05-11T11:52:19.437Z,28.35
2018-05-11T11:54:50.424Z,27.97
2018-05-11T11:57:21.425Z,28.11
2018-05-11T11:59:52.446Z,27.88
2018-05-11T12:02:23.489Z,27.92
2018-05-11T12:04:54.520Z,27.16
2018-05-11T12:07:25.483Z,26.34
2018-05-11T12:09:56.492Z,25.59
2018-05-11T12:12:27.464Z,25.62
2018-05-11T12:14:58.480Z,26.53
2018-05-11T12:17:29.443Z,28.05
2018-05-11T12:20:00.419Z,28.96
2018-05-11T12:22:31.456Z,30.42
2018-05-11T12:25:02.436Z,31.23
2018-05-11T12:27:33.446Z,31.25
2018-05-11T12:30:04.460Z,31.47
2018-05-11T12:32:35.496Z,30.84
2018-05-11T12:35:06.492Z,29.79
2018-05-11T12:37:37.504Z,29.23
2018-05-11T12:40:08.529Z,29.05
2018-05-11T12:42:39.488Z,27.48
2018-05-11T12:45:10.490Z,27.64
2018-05-11T12:47:41.538Z,27.69
2018-05-11T12:50:12.520Z,27.90
2018-05-11T12:52:43.641Z,29.13
2018-05-11T12:55:14.545Z,29.77
2018-05-11T12:57:45.558Z,29.64
2018-05-11T13:00:16.562Z,29.41
2018-05-11T13:02:47.564Z,28.75
2018-05-11T13:05:18.547Z,28.35
2018-05-11T13:07:49.522Z,28.95
2018-05-11T13:10:20.498Z,31.04
2018-05-11T13:12:51.518Z,32.13
2018-05-11T13:15:22.504Z,31.89
2018-05-11T13:17:53.512Z,31.39
2018-05-11T13:20:24.510Z,30.99
2018-05-11T13:22:55.530Z,30.27
2018-05-11T13:25:26.514Z,29.93
2018-05-11T13:28:04.466Z,28.88
2018-05-11T13:30:36.028Z,28.34
2018-05-11T13:33:07.026Z,28.17
2018-05-11T13:35:38.032Z,27.21
2018-05-11T13:38:09.044Z,27.36
2018-05-11T13:40:40.053Z,28.29
2018-05-11T13:43:11.041Z,30.66
2018-05-11T13:45:42.013Z,33.10
2018-05-11T13:48:13.014Z,34.84
2018-05-11T13:50:43.980Z,34.06
2018-05-11T13:53:14.956Z,32.75
2018-05-11T13:55:45.979Z,30.98
2018-05-11T13:58:16.997Z,30.71
2018-05-11T14:00:47.980Z,30.84
2018-05-11T14:03:19.028Z,32.19
2018-05-11T14:05:49.997Z,32.19
2018-05-11T14:08:20.993Z,32.46
2018-05-11T14:10:51.995Z,33.63
2018-05-11T14:13:23.013Z,34.32
2018-05-11T14:15:53.999Z,33.12
2018-05-11T14:18:24.964Z,32.42
2018-05-11T14:20:55.948Z,32.21
2018-05-11T14:23:26.956Z,30.69
2018-05-11T14:25:57.926Z,30.55
2018-05-11T14:28:28.934Z,31.33
2018-05-11T14:30:59.957Z,30.87
2018-05-11T14:33:30.987Z,30.78
2018-05-11T14:36:02.066Z,31.09
2018-05-11T14:38:33.062Z,31.09
2018-05-11T14:41:04.090Z,30.96
2018-05-11T14:43:35.054Z,30.67
2018-05-11T14:46:06.054Z,31.62
2018-05-11T14:48:37.042Z,31.98
2018-05-11T14:51:08.039Z,31.88
2018-05-11T14:53:39.039Z,31.58
2018-05-11T14:56:10.036Z,31.40
2018-05-11T14:58:41.046Z,31.15
2018-05-11T15:01:12.017Z,30.88
2018-05-11T15:03:43.012Z,31.16
2018-05-11T15:06:13.988Z,31.54
2018-05-11T15:08:44.966Z,31.57
2018-05-11T15:11:16.008Z,31.45
2018-05-11T15:13:47.033Z,30.85
2018-05-11T15:16:18.076Z,30.65
2018-05-11T15:18:49.120Z,31.04
2018-05-11T15:21:20.159Z,31.11
2018-05-11T15:23:51.122Z,30.88
2018-05-11T15:26:22.192Z,31.13
2018-05-11T15:28:53.183Z,30.97
2018-05-11T15:31:24.199Z,31.90
2018-05-11T15:33:55.226Z,32.36
2018-05-11T15:36:26.220Z,33.04
2018-05-11T15:38:57.265Z,32.91
2018-05-11T15:41:28.283Z,33.50
2018-05-11T15:43:59.348Z,33.67
2018-05-11T15:46:30.415Z,33.32
2018-05-11T15:49:01.356Z,33.11
2018-05-11T15:51:32.410Z,33.13
2018-05-11T15:54:03.410Z,32.93
2018-05-11T15:56:34.374Z,32.92
2018-05-11T15:59:05.459Z,32.92
2018-05-11T16:01:36.545Z,32.91
2018-05-11T16:04:07.515Z,33.00
2018-05-11T16:06:38.524Z,33.71
2018-05-11T16:09:09.530Z,34.80
2018-05-11T16:11:41.411Z,35.29
2018-05-11T16:14:12.677Z,35.38
2018-05-11T16:16:43.700Z,35.57
2018-05-11T16:19:14.932Z,35.65
2018-05-11T16:21:46.039Z,35.69
2018-05-11T16:24:17.040Z,35.98
2018-05-11T16:26:48.090Z,35.87
2018-05-11T16:29:19.076Z,35.96
2018-05-11T16:31:50.041Z,35.83
2018-05-11T16:34:20.975Z,35.71
2018-05-11T16:36:51.979Z,35.96
2018-05-11T16:39:22.971Z,36.37
2018-05-11T16:41:54.001Z,36.89
2018-05-11T16:44:24.997Z,37.44
2018-05-11T16:46:56.011Z,37.54
2018-05-11T16:49:26.979Z,37.68
2018-05-11T16:51:57.972Z,37.51
2018-05-11T16:54:28.954Z,37.55
2018-05-11T16:57:00.032Z,37.60
2018-05-11T16:59:31.021Z,37.75
2018-05-11T17:02:02.065Z,38.01
2018-05-11T17:04:33.051Z,38.44
2018-05-11T17:07:04.035Z,38.52
2018-05-11T17:09:35.038Z,38.68
2018-05-11T17:12:06.031Z,38.82
2018-05-11T17:14:37.003Z,38.92
2018-05-11T17:17:07.991Z,39.13
2018-05-11T17:19:39.024Z,39.50
2018-05-11T17:22:10.024Z,39.67
2018-05-11T17:24:41.032Z,39.96
2018-05-11T17:27:11.998Z,39.80
2018-05-11T17:29:43.037Z,39.88
2018-05-11T17:32:14.038Z,39.30
2018-05-11T17:34:45.068Z,39.67
2018-05-11T17:37:16.058Z,39.95
2018-05-11T17:39:47.080Z,39.99
2018-05-11T17:42:18.088Z,40.27
2018-05-11T17:44:49.084Z,40.62
2018-05-11T17:47:20.116Z,40.76
2018-05-11T17:49:51.160Z,41.05
2018-05-11T17:52:22.109Z,41.05
2018-05-11T17:54:53.148Z,41.13
2018-05-11T17:57:24.143Z,41.36
2018-05-11T17:59:55.124Z,41.64
2018-05-11T18:02:26.105Z,41.84
2018-05-11T18:04:57.115Z,41.94
2018-05-11T18:07:28.094Z,41.97
2018-05-11T18:09:59.600Z,42.24
2018-05-11T18:12:30.564Z,42.34
2018-05-11T18:15:01.585Z,42.42
2018-05-11T18:17:32.578Z,42.57
2018-05-11T18:20:03.531Z,42.76
2018-05-11T18:22:34.548Z,42.99
2018-05-11T18:25:05.563Z,43.26
2018-05-11T18:27:36.607Z,43.45
2018-05-11T18:30:07.599Z,43.58
2018-05-11T18:32:38.578Z,43.72
2018-05-11T18:35:09.604Z,43.82
2018-05-11T18:37:40.581Z,44.17
2018-05-11T18:40:11.665Z,44.10
2018-05-11T18:42:42.575Z,44.50
2018-05-11T18:45:13.576Z,44.71
2018-05-11T18:47:44.549Z,44.89
2018-05-11T18:50:15.564Z,45.15
2018-05-11T18:52:46.540Z,45.23
2018-05-11T18:55:17.591Z,45.47
2018-05-11T18:57:48.585Z,46.05
2018-05-11T19:00:19.620Z,45.95
2018-05-11T19:02:50.617Z,46.05
2018-05-11T19:05:21.588Z,46.76
2018-05-11T19:07:52.764Z,47.66
2018-05-11T19:10:23.802Z,47.84
2018-05-11T19:12:54.802Z,48.23
2018-05-11T19:15:25.828Z,48.32
2018-05-11T19:17:56.910Z,48.18
2018-05-11T19:20:27.878Z,48.11
2018-05-11T19:22:58.884Z,48.72
2018-05-11T19:25:29.893Z,49.29
2018-05-11T19:28:00.913Z,49.65
2018-05-11T19:30:31.910Z,50.05
2018-05-11T19:33:02.927Z,50.12
2018-05-11T19:35:33.929Z,49.86
2018-05-11T19:38:04.919Z,49.78
2018-05-11T19:40:35.906Z,49.92
2018-05-11T19:43:06.868Z,50.16
2018-05-11T19:45:37.854Z,50.57
2018-05-11T19:48:08.786Z,50.86
2018-05-11T19:50:39.791Z,51.00
2018-05-11T19:53:10.754Z,51.04
2018-05-11T19:55:41.762Z,51.00
2018-05-11T19:58:12.760Z,50.75
2018-05-11T20:00:43.775Z,50.65
2018-05-11T20:03:14.849Z,50.66
2018-05-11T20:05:45.814Z,50.80
2018-05-11T20:08:16.811Z,50.98
2018-05-11T20:10:47.799Z,51.07
2018-05-11T20:13:18.811Z,51.17
2018-05-11T20:15:49.828Z,51.22
2018-05-11T20:18:20.872Z,51.44
2018-05-11T20:20:51.826Z,51.45
2018-05-11T20:23:22.850Z,51.59
2018-05-11T20:25:53.868Z,51.65
2018-05-11T20:28:24.838Z,51.80
2018-05-11T20:30:55.849Z,51.95
2018-05-11T20:33:26.865Z,52.09
2018-05-11T20:35:57.851Z,52.27
2018-05-11T20:38:28.838Z,53.26
2018-05-11T20:40:59.798Z,53.72
2018-05-11T20:43:30.844Z,53.88
2018-05-11T20:46:01.902Z,53.91
2018-05-11T20:48:33.003Z,53.93
2018-05-11T20:51:04.005Z,53.88
2018-05-11T20:53:35.013Z,53.81
2018-05-11T20:56:06.007Z,53.55
2018-05-11T20:58:37.006Z,53.61
2018-05-11T21:01:08.059Z,53.53
2018-05-11T21:03:39.018Z,53.59
2018-05-11T21:06:10.015Z,53.73
2018-05-11T21:08:40.987Z,53.91
2018-05-11T21:11:12.014Z,53.97
2018-05-11T21:13:43.001Z,54.09
2018-05-11T21:16:14.000Z,54.10
2018-05-11T21:18:44.992Z,54.24
2018-05-11T21:21:15.992Z,54.50
2018-05-11T21:23:46.997Z,54.77
2018-05-11T21:26:17.959Z,54.78
2018-05-11T21:28:48.962Z,54.85
2018-05-11T21:31:20.008Z,54.99
2018-05-11T21:33:51.020Z,55.00
2018-05-11T21:36:21.982Z,54.92
2018-05-11T21:38:52.976Z,54.92
2018-05-11T21:41:23.966Z,55.02
2018-05-11T21:44:01.874Z,55.06
2018-05-11T21:46:32.897Z,55.09
2018-05-11T21:49:03.916Z,55.24
2018-05-11T21:51:34.903Z,55.23
2018-05-11T21:54:05.896Z,55.64
2018-05-11T21:56:36.885Z,55.88
2018-05-11T21:59:07.913Z,56.11
2018-05-11T22:01:38.877Z,56.38
2018-05-11T22:04:09.874Z,56.46
2018-05-11T22:06:40.843Z,56.65
2018-05-11T22:09:11.824Z,56.62
2018-05-11T22:11:42.778Z,56.56
2018-05-11T22:14:13.750Z,56.67
2018-05-11T22:16:44.761Z,56.86
2018-05-11T22:19:15.784Z,56.66
2018-05-11T22:21:46.737Z,57.11
2018-05-11T22:24:17.752Z,57.27
2018-05-11T22:26:48.735Z,57.35
2018-05-11T22:29:19.729Z,57.67
2018-05-11T22:31:50.703Z,57.77
2018-05-11T22:34:21.742Z,57.93
2018-05-11T22:36:52.690Z,58.01
2018-05-11T22:39:23.708Z,58.12
2018-05-11T22:41:54.731Z,58.28
2018-05-11T22:44:25.706Z,58.50
2018-05-11T22:46:56.749Z,58.56
2018-05-11T22:49:27.872Z,58.65
2018-05-11T22:51:58.812Z,58.75
2018-05-11T22:54:29.807Z,58.77
2018-05-11T22:57:00.805Z,58.93
2018-05-11T22:59:31.792Z,59.04
2018-05-11T23:02:03.148Z,59.06
2018-05-11T23:04:34.128Z,59.18
2018-05-11T23:07:05.122Z,59.40
2018-05-11T23:09:36.140Z,59.61
2018-05-11T23:12:07.111Z,59.74
2018-05-11T23:14:38.115Z,59.81
2018-05-11T23:17:09.052Z,59.87
2018-05-11T23:19:40.041Z,60.04
2018-05-11T23:22:12.035Z,60.23
2018-05-11T23:24:43.019Z,60.52
2018-05-11T23:27:13.994Z,61.03
2018-05-11T23:29:45.044Z,61.38
2018-05-11T23:32:16.014Z,61.79
2018-05-11T23:34:46.984Z,62.00
2018-05-11T23:37:18.010Z,62.29
2018-05-11T23:39:49.020Z,62.40
2018-05-11T23:42:20.038Z,62.54
2018-05-11T23:44:51.003Z,62.61
2018-05-11T23:47:21.985Z,62.75
2018-05-11T23:49:52.985Z,63.04
2018-05-11T23:52:24.003Z,63.30
2018-05-11T23:54:54.973Z,63.13
2018-05-11T23:57:25.988Z,63.00
2018-05-11T23:59:57.011Z,62.91
